首页
METAR-TAF:

METAR-TAF

机场 :

那不勒斯, 佛罗里达州, 美国

纬度: 26-09N, 经度: 081-46W, 海拔: 2米

当前天气观测

该预报发布于54分钟前的23:53 UTC
静风
温度 32°C
湿度 59%
气压 1017 hPa
能見度: 16.1公里
少量云层高于4500英尺
少量云层高于10000英尺

METAR: KAPF 152353Z 00000KT 10SM FEW045 FEW100 32/23 A3002 RMK AO2 LTG DSNT N SLP163 T03170228 10350 20317 53006 $

时间: 20:47 (00:47 UTC)

预报

该预报发布于1小时和27分钟前的23:20 UTC
预报有效从16日的 00点(UTC)到 16日的 24点(UTC)
风速4节,风向多变
能見度: 10公里
散云层高于3000英尺
多云层高于5000英尺
多云层高于25000英尺
附近有阵雨
从 16日的 0200点(UTC)
风速4节,风向多变
能見度: 10公里
少量云层高于3000英尺
散云层高于5000英尺
从 16日的 1600点(UTC)
风速6节,风向东转东南
能見度: 10公里
散云层高于3000英尺
散云层高于6000英尺
从 16日的 1800点(UTC)
风速9节,风向西南
能見度: 10公里
散云层高于3000英尺, 积雨云.
散云层高于5000英尺
附近有雷暴,

TAF: KAPF 152320Z 1600/1624 VRB04KT P6SM VCSH SCT030 BKN050 BKN250 FM160200 VRB04KT P6SM FEW030 SCT050 FM161600 11006KT P6SM SCT030 SCT060 FM161800 23009KT P6SM VCTS SCT030CB SCT050

超过4000个机场的气象观测和天气预报(METAR&TAF报告)。

可查询的气象台以黄色和红色小点在地图上表示。

将鼠标移到小点上方,可查看气象台名称。

然后点击查看天气观测和预报。

如需切换地图:点击带黑十字的绿色按钮放大地图;点击带横线的绿色按钮缩小地图;或者点击绿色箭头查看邻近地区的地图。


METAR-TAF: